sensor_id;sensor_type;location;lat;lon;timestamp;temperature;humidity
8231;DHT22;4156;50.908;6.974;2022-09-30T00:01:19;11.60;99.90
8231;DHT22;4156;50.908;6.974;2022-09-30T00:03:45;11.60;99.90
8231;DHT22;4156;50.908;6.974;2022-09-30T00:06:12;11.60;99.90
8231;DHT22;4156;50.908;6.974;2022-09-30T00:08:38;11.50;99.90
8231;DHT22;4156;50.908;6.974;2022-09-30T00:11:10;11.50;99.90
8231;DHT22;4156;50.908;6.974;2022-09-30T00:13:38;11.50;99.90
8231;DHT22;4156;50.908;6.974;2022-09-30T00:16:05;11.50;99.90
8231;DHT22;4156;50.908;6.974;2022-09-30T00:18:32;11.50;99.90
8231;DHT22;4156;50.908;6.974;2022-09-30T00:20:57;11.50;99.90
8231;DHT22;4156;50.908;6.974;2022-09-30T00:23:24;11.50;99.90
8231;DHT22;4156;50.908;6.974;2022-09-30T00:25:50;11.50;99.90
8231;DHT22;4156;50.908;6.974;2022-09-30T00:28:15;11.40;99.90
8231;DHT22;4156;50.908;6.974;2022-09-30T00:30:41;11.40;99.90
8231;DHT22;4156;50.908;6.974;2022-09-30T00:33:08;11.40;99.90
8231;DHT22;4156;50.908;6.974;2022-09-30T00:35:34;11.40;99.90
8231;DHT22;4156;50.908;6.974;2022-09-30T00:38:00;11.40;99.90
8231;DHT22;4156;50.908;6.974;2022-09-30T00:40:26;11.30;99.90
8231;DHT22;4156;50.908;6.974;2022-09-30T00:42:52;11.30;99.90
8231;DHT22;4156;50.908;6.974;2022-09-30T00:45:18;11.30;99.90
8231;DHT22;4156;50.908;6.974;2022-09-30T00:50:39;11.20;99.90
8231;DHT22;4156;50.908;6.974;2022-09-30T00:53:32;11.20;99.90
8231;DHT22;4156;50.908;6.974;2022-09-30T00:56:02;11.20;99.90
8231;DHT22;4156;50.908;6.974;2022-09-30T00:58:38;11.20;99.90
8231;DHT22;4156;50.908;6.974;2022-09-30T01:01:05;11.20;99.90
8231;DHT22;4156;50.908;6.974;2022-09-30T01:03:35;11.10;99.90
8231;DHT22;4156;50.908;6.974;2022-09-30T01:06:02;11.10;99.90
8231;DHT22;4156;50.908;6.974;2022-09-30T01:08:31;11.10;99.90
8231;DHT22;4156;50.908;6.974;2022-09-30T01:10:58;11.10;99.90
8231;DHT22;4156;50.908;6.974;2022-09-30T01:13:24;11.10;99.90
8231;DHT22;4156;50.908;6.974;2022-09-30T01:27:09;10.90;99.90
8231;DHT22;4156;50.908;6.974;2022-09-30T01:35:25;10.90;99.90
8231;DHT22;4156;50.908;6.974;2022-09-30T01:43:29;10.80;99.90
8231;DHT22;4156;50.908;6.974;2022-09-30T01:46:04;10.80;99.90
8231;DHT22;4156;50.908;6.974;2022-09-30T01:51:25;10.80;99.90
8231;DHT22;4156;50.908;6.974;2022-09-30T01:54:20;10.70;99.90
8231;DHT22;4156;50.908;6.974;2022-09-30T01:56:51;10.80;99.90
8231;DHT22;4156;50.908;6.974;2022-09-30T01:59:39;10.70;99.90
8231;DHT22;4156;50.908;6.974;2022-09-30T02:02:17;10.70;99.90
8231;DHT22;4156;50.908;6.974;2022-09-30T02:04:50;10.70;99.90
8231;DHT22;4156;50.908;6.974;2022-09-30T02:07:39;10.70;99.90
8231;DHT22;4156;50.908;6.974;2022-09-30T02:10:15;10.70;99.90
8231;DHT22;4156;50.908;6.974;2022-09-30T02:12:46;10.60;99.90
8231;DHT22;4156;50.908;6.974;2022-09-30T02:15:17;10.60;99.90
8231;DHT22;4156;50.908;6.974;2022-09-30T02:17:52;10.60;99.90
8231;DHT22;4156;50.908;6.974;2022-09-30T02:20:28;10.60;99.90
8231;DHT22;4156;50.908;6.974;2022-09-30T02:23:04;10.50;99.90
8231;DHT22;4156;50.908;6.974;2022-09-30T02:25:45;10.50;99.90
8231;DHT22;4156;50.908;6.974;2022-09-30T02:28:18;10.50;99.90
8231;DHT22;4156;50.908;6.974;2022-09-30T02:30:49;10.50;99.90
8231;DHT22;4156;50.908;6.974;2022-09-30T02:33:23;10.50;99.90
8231;DHT22;4156;50.908;6.974;2022-09-30T02:35:57;10.40;99.90
8231;DHT22;4156;50.908;6.974;2022-09-30T02:38:31;10.40;99.90
8231;DHT22;4156;50.908;6.974;2022-09-30T02:41:18;10.40;99.90
8231;DHT22;4156;50.908;6.974;2022-09-30T02:43:47;10.40;99.90
8231;DHT22;4156;50.908;6.974;2022-09-30T02:51:51;10.30;99.90
8231;DHT22;4156;50.908;6.974;2022-09-30T02:54:28;10.30;99.90
8231;DHT22;4156;50.908;6.974;2022-09-30T02:57:08;10.20;99.90
8231;DHT22;4156;50.908;6.974;2022-09-30T02:59:37;10.20;99.90
8231;DHT22;4156;50.908;6.974;2022-09-30T03:02:05;10.20;99.90
8231;DHT22;4156;50.908;6.974;2022-09-30T03:04:33;10.20;99.90
8231;DHT22;4156;50.908;6.974;2022-09-30T03:06:59;10.20;99.90
8231;DHT22;4156;50.908;6.974;2022-09-30T03:09:25;10.20;99.90
8231;DHT22;4156;50.908;6.974;2022-09-30T03:11:54;10.10;99.90
8231;DHT22;4156;50.908;6.974;2022-09-30T03:20:16;10.10;99.90
8231;DHT22;4156;50.908;6.974;2022-09-30T03:25:28;10.10;99.90
8231;DHT22;4156;50.908;6.974;2022-09-30T03:28:10;10.10;99.90
8231;DHT22;4156;50.908;6.974;2022-09-30T03:30:51;10.10;99.90
8231;DHT22;4156;50.908;6.974;2022-09-30T03:33:21;10.10;99.90
8231;DHT22;4156;50.908;6.974;2022-09-30T03:36:01;10.10;99.90
8231;DHT22;4156;50.908;6.974;2022-09-30T03:38:46;10.00;99.90
8231;DHT22;4156;50.908;6.974;2022-09-30T03:44:41;10.00;99.90
8231;DHT22;4156;50.908;6.974;2022-09-30T03:47:12;9.90;99.90
8231;DHT22;4156;50.908;6.974;2022-09-30T03:49:42;9.90;99.90
8231;DHT22;4156;50.908;6.974;2022-09-30T03:52:11;9.90;99.90
8231;DHT22;4156;50.908;6.974;2022-09-30T03:54:49;9.90;99.90
8231;DHT22;4156;50.908;6.974;2022-09-30T03:57:16;9.80;99.90
8231;DHT22;4156;50.908;6.974;2022-09-30T03:59:41;9.90;99.90
8231;DHT22;4156;50.908;6.974;2022-09-30T04:02:07;9.80;99.90
8231;DHT22;4156;50.908;6.974;2022-09-30T04:04:34;9.80;99.90
8231;DHT22;4156;50.908;6.974;2022-09-30T04:07:00;9.80;99.90
8231;DHT22;4156;50.908;6.974;2022-09-30T04:09:26;9.80;99.90
8231;DHT22;4156;50.908;6.974;2022-09-30T04:11:51;9.80;99.90
8231;DHT22;4156;50.908;6.974;2022-09-30T04:14:17;9.80;99.90
8231;DHT22;4156;50.908;6.974;2022-09-30T04:16:42;9.80;99.90
8231;DHT22;4156;50.908;6.974;2022-09-30T04:19:08;9.70;99.90
8231;DHT22;4156;50.908;6.974;2022-09-30T04:21:33;9.70;99.90
8231;DHT22;4156;50.908;6.974;2022-09-30T04:23:59;9.70;99.90
8231;DHT22;4156;50.908;6.974;2022-09-30T04:26:25;9.70;99.90
8231;DHT22;4156;50.908;6.974;2022-09-30T04:28:51;9.60;99.90
8231;DHT22;4156;50.908;6.974;2022-09-30T04:31:17;9.60;99.90
8231;DHT22;4156;50.908;6.974;2022-09-30T04:33:43;9.60;99.90
8231;DHT22;4156;50.908;6.974;2022-09-30T04:36:10;9.60;99.90
8231;DHT22;4156;50.908;6.974;2022-09-30T04:38:35;9.50;99.90
8231;DHT22;4156;50.908;6.974;2022-09-30T04:41:05;9.50;99.90
8231;DHT22;4156;50.908;6.974;2022-09-30T04:43:31;9.50;99.90
8231;DHT22;4156;50.908;6.974;2022-09-30T04:45:57;9.50;99.90
8231;DHT22;4156;50.908;6.974;2022-09-30T04:48:23;9.50;99.90
8231;DHT22;4156;50.908;6.974;2022-09-30T04:50:49;9.40;99.90
8231;DHT22;4156;50.908;6.974;2022-09-30T04:53:16;9.40;99.90
8231;DHT22;4156;50.908;6.974;2022-09-30T04:55:43;9.40;99.90
8231;DHT22;4156;50.908;6.974;2022-09-30T04:58:09;9.40;99.90
8231;DHT22;4156;50.908;6.974;2022-09-30T05:00:35;9.40;99.90
8231;DHT22;4156;50.908;6.974;2022-09-30T05:03:00;9.40;99.90
8231;DHT22;4156;50.908;6.974;2022-09-30T05:05:27;9.40;99.90
8231;DHT22;4156;50.908;6.974;2022-09-30T05:07:57;9.30;99.90
8231;DHT22;4156;50.908;6.974;2022-09-30T05:10:23;9.30;99.90
8231;DHT22;4156;50.908;6.974;2022-09-30T05:12:51;9.30;99.90
8231;DHT22;4156;50.908;6.974;2022-09-30T05:15:17;9.30;99.90
8231;DHT22;4156;50.908;6.974;2022-09-30T05:17:42;9.20;99.90
8231;DHT22;4156;50.908;6.974;2022-09-30T05:20:08;9.20;99.90
8231;DHT22;4156;50.908;6.974;2022-09-30T05:22:35;9.20;99.90
8231;DHT22;4156;50.908;6.974;2022-09-30T05:25:01;9.20;99.90
8231;DHT22;4156;50.908;6.974;2022-09-30T05:27:28;9.20;99.90
8231;DHT22;4156;50.908;6.974;2022-09-30T05:29:54;9.20;99.90
8231;DHT22;4156;50.908;6.974;2022-09-30T05:32:19;9.20;99.90
8231;DHT22;4156;50.908;6.974;2022-09-30T05:34:46;9.20;99.90
8231;DHT22;4156;50.908;6.974;2022-09-30T05:37:12;9.20;99.90
8231;DHT22;4156;50.908;6.974;2022-09-30T05:39:38;9.20;99.90
8231;DHT22;4156;50.908;6.974;2022-09-30T05:42:04;9.10;99.90
8231;DHT22;4156;50.908;6.974;2022-09-30T05:44:29;9.10;99.90
8231;DHT22;4156;50.908;6.974;2022-09-30T05:46:55;9.20;99.90
8231;DHT22;4156;50.908;6.974;2022-09-30T05:49:20;9.20;99.90
8231;DHT22;4156;50.908;6.974;2022-09-30T05:51:46;9.20;99.90
8231;DHT22;4156;50.908;6.974;2022-09-30T05:54:12;9.20;99.90
8231;DHT22;4156;50.908;6.974;2022-09-30T05:56:38;9.20;99.90
8231;DHT22;4156;50.908;6.974;2022-09-30T05:59:05;9.20;99.90
8231;DHT22;4156;50.908;6.974;2022-09-30T06:01:30;9.10;99.90
8231;DHT22;4156;50.908;6.974;2022-09-30T06:03:56;9.10;99.90
8231;DHT22;4156;50.908;6.974;2022-09-30T06:06:21;9.10;99.90
8231;DHT22;4156;50.908;6.974;2022-09-30T06:08:47;9.10;99.90
8231;DHT22;4156;50.908;6.974;2022-09-30T06:11:16;9.10;99.90
8231;DHT22;4156;50.908;6.974;2022-09-30T06:13:42;9.00;99.90
8231;DHT22;4156;50.908;6.974;2022-09-30T06:16:09;9.00;99.90
8231;DHT22;4156;50.908;6.974;2022-09-30T06:18:36;9.10;99.90
8231;DHT22;4156;50.908;6.974;2022-09-30T06:21:03;9.00;99.90
8231;DHT22;4156;50.908;6.974;2022-09-30T06:23:31;9.00;99.90
8231;DHT22;4156;50.908;6.974;2022-09-30T06:25:57;9.00;99.90
8231;DHT22;4156;50.908;6.974;2022-09-30T06:28:23;9.00;99.90
8231;DHT22;4156;50.908;6.974;2022-09-30T06:30:49;9.00;99.90
8231;DHT22;4156;50.908;6.974;2022-09-30T06:33:15;9.00;99.90
8231;DHT22;4156;50.908;6.974;2022-09-30T06:35:41;9.00;99.90
8231;DHT22;4156;50.908;6.974;2022-09-30T06:38:08;8.90;99.90
8231;DHT22;4156;50.908;6.974;2022-09-30T06:40:33;9.00;99.90
8231;DHT22;4156;50.908;6.974;2022-09-30T06:42:59;8.90;99.90
8231;DHT22;4156;50.908;6.974;2022-09-30T06:45:26;9.00;99.90
8231;DHT22;4156;50.908;6.974;2022-09-30T06:47:59;9.00;99.90
8231;DHT22;4156;50.908;6.974;2022-09-30T06:50:25;9.00;99.90
8231;DHT22;4156;50.908;6.974;2022-09-30T06:52:51;9.10;99.90
8231;DHT22;4156;50.908;6.974;2022-09-30T06:55:21;9.10;99.90
8231;DHT22;4156;50.908;6.974;2022-09-30T06:57:49;9.10;99.90
8231;DHT22;4156;50.908;6.974;2022-09-30T07:00:14;9.20;99.90
8231;DHT22;4156;50.908;6.974;2022-09-30T07:02:41;9.20;99.90
8231;DHT22;4156;50.908;6.974;2022-09-30T07:05:07;9.20;99.90
8231;DHT22;4156;50.908;6.974;2022-09-30T07:07:33;9.20;99.90
8231;DHT22;4156;50.908;6.974;2022-09-30T07:09:59;9.30;99.90
8231;DHT22;4156;50.908;6.974;2022-09-30T07:12:25;9.20;99.90
8231;DHT22;4156;50.908;6.974;2022-09-30T07:14:51;9.30;99.90
8231;DHT22;4156;50.908;6.974;2022-09-30T07:17:17;9.30;99.90
8231;DHT22;4156;50.908;6.974;2022-09-30T07:19:43;9.40;99.90
8231;DHT22;4156;50.908;6.974;2022-09-30T07:22:08;9.40;99.90
8231;DHT22;4156;50.908;6.974;2022-09-30T07:24:54;9.50;99.90
8231;DHT22;4156;50.908;6.974;2022-09-30T07:27:20;9.50;99.90
8231;DHT22;4156;50.908;6.974;2022-09-30T07:29:46;9.50;99.90
8231;DHT22;4156;50.908;6.974;2022-09-30T07:32:12;9.60;99.90
8231;DHT22;4156;50.908;6.974;2022-09-30T07:34:38;9.60;99.90
8231;DHT22;4156;50.908;6.974;2022-09-30T07:37:08;9.70;99.90
8231;DHT22;4156;50.908;6.974;2022-09-30T07:39:34;9.70;99.90
8231;DHT22;4156;50.908;6.974;2022-09-30T07:42:00;9.70;99.90
8231;DHT22;4156;50.908;6.974;2022-09-30T07:44:28;9.80;99.90
8231;DHT22;4156;50.908;6.974;2022-09-30T07:46:54;9.90;99.90
8231;DHT22;4156;50.908;6.974;2022-09-30T07:49:20;9.90;99.90
8231;DHT22;4156;50.908;6.974;2022-09-30T07:51:56;9.90;99.90
8231;DHT22;4156;50.908;6.974;2022-09-30T07:54:25;10.00;99.90
8231;DHT22;4156;50.908;6.974;2022-09-30T07:56:52;10.00;99.90
8231;DHT22;4156;50.908;6.974;2022-09-30T07:59:18;9.90;99.90
8231;DHT22;4156;50.908;6.974;2022-09-30T08:01:44;9.90;99.90
8231;DHT22;4156;50.908;6.974;2022-09-30T08:04:10;9.90;99.90
8231;DHT22;4156;50.908;6.974;2022-09-30T08:06:42;9.80;99.90
8231;DHT22;4156;50.908;6.974;2022-09-30T08:09:09;9.80;99.90
8231;DHT22;4156;50.908;6.974;2022-09-30T08:11:36;9.90;99.90
8231;DHT22;4156;50.908;6.974;2022-09-30T08:14:02;9.80;99.90
8231;DHT22;4156;50.908;6.974;2022-09-30T08:16:28;9.90;99.90
8231;DHT22;4156;50.908;6.974;2022-09-30T08:18:58;9.90;99.90
8231;DHT22;4156;50.908;6.974;2022-09-30T08:21:25;10.00;99.90
8231;DHT22;4156;50.908;6.974;2022-09-30T08:23:51;10.00;99.90
8231;DHT22;4156;50.908;6.974;2022-09-30T08:26:16;10.10;99.90
8231;DHT22;4156;50.908;6.974;2022-09-30T08:28:43;10.10;99.90
8231;DHT22;4156;50.908;6.974;2022-09-30T08:31:19;10.10;99.90
8231;DHT22;4156;50.908;6.974;2022-09-30T08:33:45;10.20;99.90
8231;DHT22;4156;50.908;6.974;2022-09-30T08:36:16;10.20;99.90
8231;DHT22;4156;50.908;6.974;2022-09-30T08:38:43;10.20;99.90
8231;DHT22;4156;50.908;6.974;2022-09-30T08:46:49;10.30;99.90
8231;DHT22;4156;50.908;6.974;2022-09-30T08:49:24;10.40;99.90
8231;DHT22;4156;50.908;6.974;2022-09-30T08:51:52;10.40;99.90
8231;DHT22;4156;50.908;6.974;2022-09-30T08:54:21;10.40;99.90
8231;DHT22;4156;50.908;6.974;2022-09-30T08:56:48;10.40;99.90
8231;DHT22;4156;50.908;6.974;2022-09-30T08:59:28;10.50;99.90
8231;DHT22;4156;50.908;6.974;2022-09-30T09:04:26;10.60;99.90
8231;DHT22;4156;50.908;6.974;2022-09-30T09:06:55;10.60;99.90
8231;DHT22;4156;50.908;6.974;2022-09-30T09:09:58;10.60;99.90
8231;DHT22;4156;50.908;6.974;2022-09-30T09:12:55;10.60;99.90
8231;DHT22;4156;50.908;6.974;2022-09-30T09:15:32;10.70;99.90
8231;DHT22;4156;50.908;6.974;2022-09-30T09:18:37;10.70;99.90
8231;DHT22;4156;50.908;6.974;2022-09-30T09:24:00;10.70;99.90
8231;DHT22;4156;50.908;6.974;2022-09-30T09:26:29;10.70;99.90
8231;DHT22;4156;50.908;6.974;2022-09-30T09:29:21;10.80;99.90
8231;DHT22;4156;50.908;6.974;2022-09-30T09:31:49;10.80;99.90
8231;DHT22;4156;50.908;6.974;2022-09-30T09:34:15;10.80;99.90
8231;DHT22;4156;50.908;6.974;2022-09-30T09:37:01;10.80;99.90
8231;DHT22;4156;50.908;6.974;2022-09-30T09:42:29;10.90;99.90
8231;DHT22;4156;50.908;6.974;2022-09-30T09:45:07;10.90;99.90
8231;DHT22;4156;50.908;6.974;2022-09-30T09:47:36;11.00;99.90
8231;DHT22;4156;50.908;6.974;2022-09-30T09:50:03;11.00;99.90
8231;DHT22;4156;50.908;6.974;2022-09-30T09:52:52;11.00;99.90
8231;DHT22;4156;50.908;6.974;2022-09-30T09:55:21;11.00;99.90
8231;DHT22;4156;50.908;6.974;2022-09-30T09:57:47;11.10;99.90
8231;DHT22;4156;50.908;6.974;2022-09-30T10:00:24;11.10;99.90
8231;DHT22;4156;50.908;6.974;2022-09-30T10:05:42;11.10;99.90
8231;DHT22;4156;50.908;6.974;2022-09-30T10:10:44;11.20;99.90
8231;DHT22;4156;50.908;6.974;2022-09-30T10:13:18;11.30;99.90
8231;DHT22;4156;50.908;6.974;2022-09-30T10:15:44;11.30;99.90
8231;DHT22;4156;50.908;6.974;2022-09-30T10:18:25;11.30;99.90
8231;DHT22;4156;50.908;6.974;2022-09-30T10:20:59;11.30;99.90
8231;DHT22;4156;50.908;6.974;2022-09-30T10:23:31;11.40;99.90
8231;DHT22;4156;50.908;6.974;2022-09-30T10:29:00;11.40;99.90
8231;DHT22;4156;50.908;6.974;2022-09-30T10:31:29;11.40;99.90
8231;DHT22;4156;50.908;6.974;2022-09-30T10:34:24;11.50;99.90
8231;DHT22;4156;50.908;6.974;2022-09-30T10:36:51;11.50;99.90
8231;DHT22;4156;50.908;6.974;2022-09-30T10:41:49;11.50;99.90
8231;DHT22;4156;50.908;6.974;2022-09-30T10:44:18;11.80;99.90
8231;DHT22;4156;50.908;6.974;2022-09-30T10:46:47;11.50;99.90
8231;DHT22;4156;50.908;6.974;2022-09-30T10:49:36;11.60;99.90
8231;DHT22;4156;50.908;6.974;2022-09-30T10:52:05;11.60;99.90
8231;DHT22;4156;50.908;6.974;2022-09-30T10:54:50;11.60;99.90
8231;DHT22;4156;50.908;6.974;2022-09-30T10:57:25;11.70;99.90
8231;DHT22;4156;50.908;6.974;2022-09-30T10:59:59;11.70;99.90
8231;DHT22;4156;50.908;6.974;2022-09-30T11:02:41;11.70;99.90
8231;DHT22;4156;50.908;6.974;2022-09-30T11:05:18;11.80;99.90
8231;DHT22;4156;50.908;6.974;2022-09-30T11:10:32;11.80;99.90
8231;DHT22;4156;50.908;6.974;2022-09-30T11:13:21;11.80;99.90
8231;DHT22;4156;50.908;6.974;2022-09-30T11:15:55;11.80;99.90
8231;DHT22;4156;50.908;6.974;2022-09-30T11:18:37;11.80;99.90
8231;DHT22;4156;50.908;6.974;2022-09-30T11:21:19;11.80;99.90
8231;DHT22;4156;50.908;6.974;2022-09-30T11:23:53;11.90;99.90
8231;DHT22;4156;50.908;6.974;2022-09-30T11:26:38;12.00;99.90
8231;DHT22;4156;50.908;6.974;2022-09-30T11:34:17;12.10;99.90
8231;DHT22;4156;50.908;6.974;2022-09-30T11:44:50;12.20;99.90
8231;DHT22;4156;50.908;6.974;2022-09-30T11:47:30;12.20;99.90
8231;DHT22;4156;50.908;6.974;2022-09-30T11:50:16;12.20;99.90
8231;DHT22;4156;50.908;6.974;2022-09-30T11:53:01;12.30;99.90
8231;DHT22;4156;50.908;6.974;2022-09-30T11:55:51;12.30;99.90
8231;DHT22;4156;50.908;6.974;2022-09-30T11:58:30;12.30;99.90
8231;DHT22;4156;50.908;6.974;2022-09-30T12:01:12;12.30;99.90
8231;DHT22;4156;50.908;6.974;2022-09-30T12:03:42;12.30;99.90
8231;DHT22;4156;50.908;6.974;2022-09-30T12:06:26;12.40;99.90
8231;DHT22;4156;50.908;6.974;2022-09-30T12:08:57;12.40;99.90
8231;DHT22;4156;50.908;6.974;2022-09-30T12:11:42;12.50;99.90
8231;DHT22;4156;50.908;6.974;2022-09-30T12:14:17;12.50;99.90
8231;DHT22;4156;50.908;6.974;2022-09-30T12:16:45;12.60;99.90
8231;DHT22;4156;50.908;6.974;2022-09-30T12:19:28;12.60;99.90
8231;DHT22;4156;50.908;6.974;2022-09-30T12:22:03;12.60;99.90
8231;DHT22;4156;50.908;6.974;2022-09-30T12:24:42;12.70;99.90
8231;DHT22;4156;50.908;6.974;2022-09-30T12:27:22;12.70;99.90
8231;DHT22;4156;50.908;6.974;2022-09-30T12:30:01;12.80;99.90
8231;DHT22;4156;50.908;6.974;2022-09-30T12:33:05;12.80;99.90
8231;DHT22;4156;50.908;6.974;2022-09-30T12:48:51;12.90;99.90
8231;DHT22;4156;50.908;6.974;2022-09-30T12:51:28;12.90;99.90
8231;DHT22;4156;50.908;6.974;2022-09-30T12:54:02;12.90;99.90
8231;DHT22;4156;50.908;6.974;2022-09-30T12:56:30;13.00;99.90
8231;DHT22;4156;50.908;6.974;2022-09-30T12:58:57;13.00;99.90
8231;DHT22;4156;50.908;6.974;2022-09-30T13:01:34;13.10;99.90
8231;DHT22;4156;50.908;6.974;2022-09-30T13:07:12;13.10;99.90
8231;DHT22;4156;50.908;6.974;2022-09-30T13:19:45;13.20;99.90
8231;DHT22;4156;50.908;6.974;2022-09-30T13:30:33;13.30;99.90
8231;DHT22;4156;50.908;6.974;2022-09-30T13:35:49;13.30;99.90
8231;DHT22;4156;50.908;6.974;2022-09-30T13:38:16;13.30;99.90
8231;DHT22;4156;50.908;6.974;2022-09-30T13:41:01;13.40;99.90
8231;DHT22;4156;50.908;6.974;2022-09-30T13:43:58;13.50;99.90
8231;DHT22;4156;50.908;6.974;2022-09-30T13:46:55;13.50;99.90
8231;DHT22;4156;50.908;6.974;2022-09-30T13:49:37;13.60;99.90
8231;DHT22;4156;50.908;6.974;2022-09-30T13:52:19;13.60;99.90
8231;DHT22;4156;50.908;6.974;2022-09-30T13:54:46;13.60;99.90
8231;DHT22;4156;50.908;6.974;2022-09-30T13:57:25;13.60;99.90
8231;DHT22;4156;50.908;6.974;2022-09-30T14:00:06;13.70;99.90
8231;DHT22;4156;50.908;6.974;2022-09-30T14:05:51;13.80;99.90
8231;DHT22;4156;50.908;6.974;2022-09-30T14:17:12;13.80;99.90
8231;DHT22;4156;50.908;6.974;2022-09-30T14:22:17;13.90;99.90
8231;DHT22;4156;50.908;6.974;2022-09-30T14:24:43;13.90;99.90
8231;DHT22;4156;50.908;6.974;2022-09-30T14:32:24;13.90;99.90
8231;DHT22;4156;50.908;6.974;2022-09-30T14:34:51;14.00;99.90
8231;DHT22;4156;50.908;6.974;2022-09-30T14:37:27;14.00;99.90
8231;DHT22;4156;50.908;6.974;2022-09-30T14:39:54;14.00;99.90
8231;DHT22;4156;50.908;6.974;2022-09-30T14:42:31;14.00;99.90
8231;DHT22;4156;50.908;6.974;2022-09-30T14:44:59;14.10;99.90
8231;DHT22;4156;50.908;6.974;2022-09-30T14:47:38;14.10;99.90
8231;DHT22;4156;50.908;6.974;2022-09-30T14:50:14;14.10;99.90
8231;DHT22;4156;50.908;6.974;2022-09-30T14:52:43;14.20;99.90
8231;DHT22;4156;50.908;6.974;2022-09-30T14:55:35;14.20;99.90
8231;DHT22;4156;50.908;6.974;2022-09-30T15:03:28;14.20;99.90
8231;DHT22;4156;50.908;6.974;2022-09-30T15:05:55;14.20;99.90
8231;DHT22;4156;50.908;6.974;2022-09-30T15:08:21;14.20;99.90
8231;DHT22;4156;50.908;6.974;2022-09-30T15:10:49;14.30;99.90
8231;DHT22;4156;50.908;6.974;2022-09-30T15:13:17;14.30;99.90
8231;DHT22;4156;50.908;6.974;2022-09-30T15:15:43;14.30;99.90
8231;DHT22;4156;50.908;6.974;2022-09-30T15:20:57;14.40;99.90
8231;DHT22;4156;50.908;6.974;2022-09-30T15:23:30;14.40;99.90
8231;DHT22;4156;50.908;6.974;2022-09-30T15:25:58;14.40;99.90
8231;DHT22;4156;50.908;6.974;2022-09-30T15:28:24;14.40;99.90
8231;DHT22;4156;50.908;6.974;2022-09-30T15:30:51;14.40;99.90
8231;DHT22;4156;50.908;6.974;2022-09-30T15:33:20;14.50;99.90
8231;DHT22;4156;50.908;6.974;2022-09-30T15:35:49;14.60;99.90
8231;DHT22;4156;50.908;6.974;2022-09-30T15:38:26;14.60;99.90
8231;DHT22;4156;50.908;6.974;2022-09-30T15:40:59;14.60;99.90
8231;DHT22;4156;50.908;6.974;2022-09-30T15:46:30;14.60;99.90
8231;DHT22;4156;50.908;6.974;2022-09-30T15:49:09;14.60;99.90
8231;DHT22;4156;50.908;6.974;2022-09-30T15:51:47;14.60;99.90
8231;DHT22;4156;50.908;6.974;2022-09-30T15:54:26;14.60;99.90
8231;DHT22;4156;50.908;6.974;2022-09-30T15:56:52;14.60;99.90
8231;DHT22;4156;50.908;6.974;2022-09-30T15:59:17;14.60;99.90
8231;DHT22;4156;50.908;6.974;2022-09-30T16:01:44;14.60;99.90
8231;DHT22;4156;50.908;6.974;2022-09-30T16:04:21;14.60;99.90
8231;DHT22;4156;50.908;6.974;2022-09-30T16:06:58;14.60;99.90
8231;DHT22;4156;50.908;6.974;2022-09-30T16:09:29;14.60;99.90
8231;DHT22;4156;50.908;6.974;2022-09-30T16:19:50;14.60;99.90
8231;DHT22;4156;50.908;6.974;2022-09-30T16:22:55;14.60;99.90
8231;DHT22;4156;50.908;6.974;2022-09-30T16:25:28;14.60;99.90
8231;DHT22;4156;50.908;6.974;2022-09-30T16:28:22;14.60;99.90
8231;DHT22;4156;50.908;6.974;2022-09-30T16:30:50;14.70;99.90
8231;DHT22;4156;50.908;6.974;2022-09-30T16:33:17;14.70;99.90
8231;DHT22;4156;50.908;6.974;2022-09-30T16:35:43;14.70;99.90
8231;DHT22;4156;50.908;6.974;2022-09-30T16:38:12;14.70;99.90
8231;DHT22;4156;50.908;6.974;2022-09-30T16:40:38;14.70;99.90
8231;DHT22;4156;50.908;6.974;2022-09-30T16:43:05;14.70;99.90
8231;DHT22;4156;50.908;6.974;2022-09-30T16:45:31;14.70;99.90
8231;DHT22;4156;50.908;6.974;2022-09-30T16:47:57;14.70;99.90
8231;DHT22;4156;50.908;6.974;2022-09-30T16:53:04;14.70;99.90
8231;DHT22;4156;50.908;6.974;2022-09-30T16:55:30;14.70;99.90
8231;DHT22;4156;50.908;6.974;2022-09-30T16:57:57;14.70;99.90
8231;DHT22;4156;50.908;6.974;2022-09-30T17:00:24;14.70;99.90
8231;DHT22;4156;50.908;6.974;2022-09-30T17:02:49;14.70;99.90
8231;DHT22;4156;50.908;6.974;2022-09-30T17:05:20;14.80;99.90
8231;DHT22;4156;50.908;6.974;2022-09-30T17:07:53;14.70;99.90
8231;DHT22;4156;50.908;6.974;2022-09-30T17:10:24;14.80;99.90
8231;DHT22;4156;50.908;6.974;2022-09-30T17:12:50;14.70;99.90
8231;DHT22;4156;50.908;6.974;2022-09-30T17:15:17;14.80;99.90
8231;DHT22;4156;50.908;6.974;2022-09-30T17:17:43;14.80;99.90
8231;DHT22;4156;50.908;6.974;2022-09-30T17:20:09;14.80;99.90
8231;DHT22;4156;50.908;6.974;2022-09-30T17:22:34;14.80;99.90
8231;DHT22;4156;50.908;6.974;2022-09-30T17:25:00;14.80;99.90
8231;DHT22;4156;50.908;6.974;2022-09-30T17:27:26;14.80;99.90
8231;DHT22;4156;50.908;6.974;2022-09-30T17:29:51;14.80;99.90
8231;DHT22;4156;50.908;6.974;2022-09-30T17:32:17;14.80;99.90
8231;DHT22;4156;50.908;6.974;2022-09-30T17:34:42;14.80;99.90
8231;DHT22;4156;50.908;6.974;2022-09-30T17:37:09;14.80;99.90
8231;DHT22;4156;50.908;6.974;2022-09-30T17:39:36;14.80;99.90
8231;DHT22;4156;50.908;6.974;2022-09-30T17:42:02;14.80;99.90
8231;DHT22;4156;50.908;6.974;2022-09-30T17:44:46;14.80;99.90
8231;DHT22;4156;50.908;6.974;2022-09-30T17:47:12;14.80;99.90
8231;DHT22;4156;50.908;6.974;2022-09-30T17:49:37;14.80;99.90
8231;DHT22;4156;50.908;6.974;2022-09-30T17:52:03;14.80;99.90
8231;DHT22;4156;50.908;6.974;2022-09-30T17:54:29;14.80;99.90
8231;DHT22;4156;50.908;6.974;2022-09-30T17:56:55;14.80;99.90
8231;DHT22;4156;50.908;6.974;2022-09-30T17:59:22;14.80;99.90
8231;DHT22;4156;50.908;6.974;2022-09-30T18:01:50;14.80;99.90
8231;DHT22;4156;50.908;6.974;2022-09-30T18:04:16;14.80;99.90
8231;DHT22;4156;50.908;6.974;2022-09-30T18:06:43;14.80;99.90
8231;DHT22;4156;50.908;6.974;2022-09-30T18:09:09;14.80;99.90
8231;DHT22;4156;50.908;6.974;2022-09-30T18:11:35;14.80;99.90
8231;DHT22;4156;50.908;6.974;2022-09-30T18:14:01;14.80;99.90
8231;DHT22;4156;50.908;6.974;2022-09-30T18:16:31;14.80;99.90
8231;DHT22;4156;50.908;6.974;2022-09-30T18:19:00;14.80;99.90
8231;DHT22;4156;50.908;6.974;2022-09-30T18:21:26;15.20;99.90
8231;DHT22;4156;50.908;6.974;2022-09-30T18:23:53;14.80;99.90
8231;DHT22;4156;50.908;6.974;2022-09-30T18:26:22;14.80;99.90
8231;DHT22;4156;50.908;6.974;2022-09-30T18:28:48;14.90;99.90
8231;DHT22;4156;50.908;6.974;2022-09-30T18:31:16;14.80;99.90
8231;DHT22;4156;50.908;6.974;2022-09-30T18:33:53;14.80;99.90
8231;DHT22;4156;50.908;6.974;2022-09-30T18:36:18;14.80;99.90
8231;DHT22;4156;50.908;6.974;2022-09-30T18:38:45;14.80;99.90
8231;DHT22;4156;50.908;6.974;2022-09-30T18:41:11;14.80;99.90
8231;DHT22;4156;50.908;6.974;2022-09-30T18:43:36;14.70;99.90
8231;DHT22;4156;50.908;6.974;2022-09-30T18:46:02;14.70;99.90
8231;DHT22;4156;50.908;6.974;2022-09-30T18:48:28;14.70;99.90
8231;DHT22;4156;50.908;6.974;2022-09-30T18:51:01;14.70;99.90
8231;DHT22;4156;50.908;6.974;2022-09-30T18:53:27;14.70;99.90
8231;DHT22;4156;50.908;6.974;2022-09-30T18:55:53;14.70;99.90
8231;DHT22;4156;50.908;6.974;2022-09-30T18:58:18;14.70;99.90
8231;DHT22;4156;50.908;6.974;2022-09-30T19:00:44;14.80;99.90
8231;DHT22;4156;50.908;6.974;2022-09-30T19:03:10;14.70;99.90
8231;DHT22;4156;50.908;6.974;2022-09-30T19:05:39;14.70;99.90
8231;DHT22;4156;50.908;6.974;2022-09-30T19:08:06;14.70;99.90
8231;DHT22;4156;50.908;6.974;2022-09-30T19:10:33;14.70;99.90
8231;DHT22;4156;50.908;6.974;2022-09-30T19:12:59;14.60;99.90
8231;DHT22;4156;50.908;6.974;2022-09-30T19:15:25;14.60;99.90